Terminal Aerodrome Forecast
Issued by NWS Blacksburg, VA

Home | Current Version | Previous Version | Text Only | Print | Product List | Glossary On
Versions: 1 2 3 4 5 6 7 8 9 10 11 12 13 14 15 16 17 18 19 20 21 22 23 24 25 26 27 28 29 30 31 32 33 34 35 36 37 38 39 40 41 42 43 44
000
FTUS41 KRNK 020228 AAA
TAFBLF
TAF AMD
KBLF 020228Z 0202/0224 12005KT P6SM SCT009 BKN015 OVC025
      TEMPO 0209/0213 5SM -DZ BR BKN009 OVC015
     FM021500 14005KT P6SM SCT015 BKN025 OVC045
     FM021800 VRB05KT P6SM BKN035 BKN050=

USA.gov is the U.S. government's official web portal to all federal, state and local government web resources and services.